createdAt,value
2022-11-19T01:01:45.535Z,1006.41
2022-11-19T01:06:47.678Z,1006.37
2022-11-19T01:11:46.786Z,1006.46
2022-11-19T01:16:47.888Z,1006.45
2022-11-19T01:21:49.008Z,1006.43
2022-11-19T01:26:50.103Z,1006.43
2022-11-19T01:31:52.203Z,1006.50
2022-11-19T01:36:51.279Z,1006.57
2022-11-19T01:41:52.362Z,1006.62
2022-11-19T01:46:53.449Z,1006.72
2022-11-19T01:51:54.538Z,1006.78
2022-11-19T01:56:56.635Z,1006.81
2022-11-19T02:01:55.720Z,1006.83
2022-11-19T02:06:56.854Z,1006.87
2022-11-19T02:11:58.953Z,1006.88
2022-11-19T02:16:59.028Z,1006.90
2022-11-19T02:21:59.110Z,1006.86
2022-11-19T02:26:59.195Z,1006.90
2022-11-19T02:31:59.272Z,1006.89
2022-11-19T02:36:58.402Z,1006.98
2022-11-19T02:42:00.507Z,1007.00
2022-11-19T02:46:59.624Z,1007.08
2022-11-19T02:52:00.766Z,1007.09
2022-11-19T02:57:03.172Z,1007.04
2022-11-19T03:02:03.323Z,1007.00
2022-11-19T03:07:02.467Z,1006.94
2022-11-19T03:12:03.538Z,1007.03
2022-11-19T03:17:04.625Z,1007.03
2022-11-19T03:22:05.703Z,1007.00
2022-11-19T03:27:06.796Z,1007.00
2022-11-19T03:32:09.884Z,1007.00
2022-11-19T03:37:08.968Z,1006.92
2022-11-19T03:42:13.073Z,1006.96
2022-11-19T03:47:10.161Z,1006.95
2022-11-19T03:52:13.248Z,1006.89
2022-11-19T03:57:13.358Z,1006.97
2022-11-19T04:02:12.489Z,1007.02
2022-11-19T04:07:13.794Z,1007.10
2022-11-19T04:12:14.962Z,1007.06
2022-11-19T04:17:16.067Z,1007.06
2022-11-19T04:22:18.165Z,1006.98
2022-11-19T04:27:18.293Z,1006.99
2022-11-19T04:32:18.526Z,1006.98
2022-11-19T04:37:17.612Z,1007.07
2022-11-19T04:42:18.713Z,1007.08
2022-11-19T04:47:19.808Z,1007.11
2022-11-19T04:52:20.900Z,1007.13
2022-11-19T04:57:22.984Z,1007.09
2022-11-19T05:02:23.067Z,1007.05
2022-11-19T05:07:24.284Z,1007.08
2022-11-19T05:12:23.363Z,1007.03
2022-11-19T05:17:24.451Z,1007.02
2022-11-19T05:22:26.532Z,1007.06
2022-11-19T05:27:29.554Z,1007.08
2022-11-19T05:32:26.639Z,1007.02
2022-11-19T05:37:27.787Z,1006.99
2022-11-19T05:42:33.755Z,1006.97
2022-11-19T05:47:28.826Z,1006.97
2022-11-19T05:52:30.925Z,1006.93
2022-11-19T05:57:30.046Z,1007.03
2022-11-19T06:02:31.254Z,1007.01
2022-11-19T06:07:32.388Z,1007.05
2022-11-19T06:12:34.485Z,1007.09
2022-11-19T06:17:33.572Z,1007.15
2022-11-19T06:22:34.677Z,1007.31
2022-11-19T06:27:36.760Z,1007.35
2022-11-19T06:32:36.841Z,1007.32
2022-11-19T06:37:36.260Z,1007.37
2022-11-19T06:42:37.360Z,1007.38
2022-11-19T06:47:40.517Z,1007.49
2022-11-19T06:52:39.627Z,1007.52
2022-11-19T06:57:40.750Z,1007.58
2022-11-19T07:02:42.920Z,1007.66
2022-11-19T07:07:42.057Z,1007.69
2022-11-19T07:12:43.231Z,1007.71
2022-11-19T07:17:44.338Z,1007.71
2022-11-19T07:22:45.473Z,1007.80
2022-11-19T07:27:47.608Z,1007.90
2022-11-19T07:32:47.730Z,1008.05
2022-11-19T07:37:48.846Z,1008.09
2022-11-19T07:42:47.971Z,1008.06
2022-11-19T07:47:49.107Z,1008.11
2022-11-19T07:52:50.216Z,1008.15
2022-11-19T07:57:51.315Z,1008.23
2022-11-19T08:02:52.420Z,1008.19
2022-11-19T08:07:53.617Z,1008.22
2022-11-19T08:12:55.737Z,1008.23
2022-11-19T08:17:54.837Z,1008.22
2022-11-19T08:22:56.920Z,1008.22
2022-11-19T08:27:56.069Z,1008.27
2022-11-19T08:32:58.178Z,1008.27
2022-11-19T08:37:57.281Z,1008.31
2022-11-19T08:42:58.405Z,1008.36
2022-11-19T08:47:59.546Z,1008.39
2022-11-19T08:53:00.754Z,1008.40
2022-11-19T08:58:02.870Z,1008.39
2022-11-19T09:03:01.949Z,1008.43
2022-11-19T09:08:05.421Z,1008.45
2022-11-19T09:13:02.608Z,1008.37
2022-11-19T09:18:03.762Z,1008.36
2022-11-19T09:23:03.900Z,1008.35
2022-11-19T09:28:05.208Z,1008.34
2022-11-19T09:33:08.348Z,1008.35
2022-11-19T09:38:19.288Z,1008.34
2022-11-19T09:43:14.975Z,1008.30
2022-11-19T09:48:10.384Z,1008.45
2022-11-19T09:53:09.540Z,1008.44
2022-11-19T09:58:11.659Z,1008.39
2022-11-19T10:03:10.849Z,1008.38
2022-11-19T10:08:11.988Z,1008.35
2022-11-19T10:13:13.196Z,1008.31
2022-11-19T10:18:13.265Z,1008.35
2022-11-19T10:23:14.355Z,1008.32
2022-11-19T10:28:15.487Z,1008.21
2022-11-19T10:33:16.582Z,1008.18
2022-11-19T10:38:18.667Z,1008.08
2022-11-19T10:43:22.071Z,1008.00
2022-11-19T10:48:17.867Z,1007.91
2022-11-19T10:53:19.965Z,1007.89
2022-11-19T10:58:20.060Z,1007.80
2022-11-19T11:03:20.136Z,1007.78
2022-11-19T11:08:20.262Z,1007.74
2022-11-19T11:13:19.420Z,1007.65
2022-11-19T11:18:20.574Z,1007.59
2022-11-19T11:23:21.704Z,1007.59
2022-11-19T11:28:23.815Z,1007.52
2022-11-19T11:33:24.056Z,1007.46
2022-11-19T11:38:24.151Z,1007.42
2022-11-19T11:43:23.283Z,1007.38
2022-11-19T11:48:24.447Z,1007.40
2022-11-19T11:53:27.557Z,1007.42
2022-11-19T11:58:26.750Z,1007.34
2022-11-19T12:03:28.841Z,1007.30
2022-11-19T12:08:28.940Z,1007.23
2022-11-19T12:13:29.079Z,1007.28
2022-11-19T12:18:29.200Z,1007.20
2022-11-19T12:23:29.318Z,1007.15
2022-11-19T12:28:29.433Z,1007.16
2022-11-19T12:33:29.539Z,1007.17
2022-11-19T12:38:29.657Z,1007.14
2022-11-19T12:43:29.754Z,1007.20
2022-11-19T12:48:28.877Z,1007.07
2022-11-19T12:53:29.963Z,1007.15
2022-11-19T12:58:31.106Z,1007.17
2022-11-19T13:03:32.241Z,1007.12
2022-11-19T13:08:33.353Z,1007.17
2022-11-19T13:13:35.474Z,1007.17
2022-11-19T13:18:35.626Z,1007.20
2022-11-19T13:23:34.796Z,1007.23
2022-11-19T13:28:35.944Z,1007.22
2022-11-19T13:33:38.054Z,1007.15
2022-11-19T13:38:37.234Z,1007.20
2022-11-19T13:43:38.726Z,1007.18
2022-11-19T13:48:37.883Z,1007.18
2022-11-19T13:53:39.147Z,1007.20
2022-11-19T13:58:40.373Z,1007.23
2022-11-19T14:03:41.614Z,1007.31
2022-11-19T14:08:43.137Z,1007.21
2022-11-19T14:13:43.249Z,1007.15
2022-11-19T14:18:43.369Z,1007.18
2022-11-19T14:23:42.580Z,1007.20
2022-11-19T14:28:43.767Z,1007.23
2022-11-19T14:33:44.941Z,1007.27
2022-11-19T14:38:47.103Z,1007.31
2022-11-19T14:43:46.328Z,1007.35
2022-11-19T14:48:47.678Z,1007.35
2022-11-19T14:53:49.850Z,1007.40
2022-11-19T14:58:48.945Z,1007.48
2022-11-19T15:03:51.090Z,1007.48
2022-11-19T15:08:50.207Z,1007.52
2022-11-19T15:13:52.298Z,1007.56
2022-11-19T15:18:51.435Z,1007.61
2022-11-19T15:23:52.635Z,1007.62
2022-11-19T15:28:53.733Z,1007.62
2022-11-19T15:33:55.067Z,1007.65
2022-11-19T15:38:57.259Z,1007.76
2022-11-19T15:43:56.549Z,1007.80
2022-11-19T15:48:58.724Z,1007.83
2022-11-19T15:53:57.906Z,1007.95
2022-11-19T15:58:59.097Z,1007.97
2022-11-19T16:04:00.323Z,1008.03
2022-11-19T16:09:02.447Z,1008.00
2022-11-19T16:14:02.548Z,1008.05
2022-11-19T16:19:01.911Z,1008.06
2022-11-19T16:24:04.051Z,1008.11
2022-11-19T16:29:03.252Z,1008.21
2022-11-19T16:34:05.447Z,1008.23
2022-11-19T16:39:04.575Z,1008.21
2022-11-19T16:44:05.708Z,1008.25
2022-11-19T16:49:08.858Z,1008.40
2022-11-19T16:54:08.042Z,1008.35
2022-11-19T16:59:09.248Z,1008.32
2022-11-19T17:04:10.599Z,1008.37
2022-11-19T17:09:12.065Z,1008.41
2022-11-19T17:14:17.414Z,1008.44
2022-11-19T17:19:14.667Z,1008.42
2022-11-19T17:24:15.868Z,1008.51
2022-11-19T17:29:18.247Z,1008.64
2022-11-19T17:34:18.408Z,1008.69
2022-11-19T17:39:22.549Z,1008.64
2022-11-19T17:44:18.273Z,1008.72
2022-11-19T17:49:17.859Z,1008.73
2022-11-19T17:54:19.437Z,1008.83
2022-11-19T17:59:19.431Z,1008.88
2022-11-19T18:04:19.269Z,1008.93
2022-11-19T18:09:19.445Z,1008.89
2022-11-19T18:15:03.205Z,1009.03
2022-11-19T18:19:18.737Z,1009.06
2022-11-19T18:24:18.321Z,1009.06
2022-11-19T18:29:20.128Z,1009.09
2022-11-19T18:34:19.636Z,1009.07
2022-11-19T18:39:20.596Z,1009.07
2022-11-19T18:44:20.249Z,1009.13
2022-11-19T18:49:19.961Z,1009.09
2022-11-19T18:54:19.553Z,1009.06
2022-11-19T18:59:19.372Z,1009.12
2022-11-19T19:04:20.509Z,1009.06
2022-11-19T19:09:20.674Z,1009.09
2022-11-19T19:14:20.342Z,1009.04
2022-11-19T19:19:22.090Z,1009.11
2022-11-19T19:24:22.820Z,1009.15
2022-11-19T19:29:23.316Z,1009.07
2022-11-19T19:34:23.328Z,1009.14
2022-11-19T19:39:24.397Z,1009.15
2022-11-19T19:44:22.395Z,1009.22
2022-11-19T19:49:22.531Z,1009.29
2022-11-19T19:54:22.170Z,1009.33
2022-11-19T19:59:21.817Z,1009.43
2022-11-19T20:04:21.367Z,1009.45
2022-11-19T20:09:20.855Z,1009.46
2022-11-19T20:14:20.301Z,1009.46
2022-11-19T20:20:05.775Z,1009.55
2022-11-19T20:24:21.021Z,1009.69
2022-11-19T20:29:22.937Z,1009.71
2022-11-19T20:34:22.862Z,1009.68
2022-11-19T20:39:22.489Z,1009.73
2022-11-19T20:44:22.704Z,1009.78
2022-11-19T20:49:23.710Z,1009.75
2022-11-19T20:54:23.362Z,1009.81
2022-11-19T20:59:25.815Z,1009.87
2022-11-19T21:04:25.444Z,1009.90
2022-11-19T21:09:25.406Z,1009.96
2022-11-19T21:14:25.431Z,1009.89
2022-11-19T21:19:24.903Z,1009.81
2022-11-19T21:24:28.043Z,1009.89
2022-11-19T21:29:27.258Z,1009.86
2022-11-19T21:34:28.569Z,1009.85
2022-11-19T21:39:29.845Z,1009.83
2022-11-19T21:44:31.186Z,1009.85
2022-11-19T21:49:32.503Z,1009.75
2022-11-19T21:54:33.775Z,1009.70
2022-11-19T21:59:34.988Z,1009.75
2022-11-19T22:04:36.092Z,1009.75
2022-11-19T22:09:37.353Z,1009.78
2022-11-19T22:14:38.642Z,1009.69
2022-11-19T22:19:39.796Z,1009.72
